createdAt,value
2022-10-23T00:01:26.674Z,100.00
2022-10-23T00:03:56.626Z,100.00
2022-10-23T00:06:24.471Z,100.00
2022-10-23T00:08:51.480Z,100.00
2022-10-23T00:11:21.361Z,100.00
2022-10-23T00:13:48.634Z,100.00
2022-10-23T00:16:16.265Z,100.00
2022-10-23T00:18:42.997Z,100.00
2022-10-23T00:21:11.778Z,100.00
2022-10-23T00:23:38.613Z,100.00
2022-10-23T00:26:05.599Z,100.00
2022-10-23T00:28:32.277Z,100.00
2022-10-23T00:31:02.240Z,100.00
2022-10-23T00:33:29.231Z,100.00
2022-10-23T00:35:55.910Z,100.00
2022-10-23T00:38:23.125Z,100.00
2022-10-23T00:43:25.820Z,100.00
2022-10-23T00:45:52.858Z,100.00
2022-10-23T00:48:20.259Z,100.00
2022-10-23T00:50:48.288Z,100.00
2022-10-23T00:53:17.006Z,100.00
2022-10-23T00:55:47.408Z,100.00
2022-10-23T00:58:15.407Z,100.00
2022-10-23T01:00:46.946Z,100.00
2022-10-23T01:03:16.666Z,100.00
2022-10-23T01:05:53.948Z,100.00
2022-10-23T01:08:29.999Z,100.00
2022-10-23T01:11:28.945Z,100.00
2022-10-23T01:17:00.394Z,100.00
2022-10-23T01:19:51.327Z,100.00
2022-10-23T01:22:38.539Z,100.00
2022-10-23T01:25:20.381Z,100.00
2022-10-23T01:27:53.047Z,100.00
2022-10-23T01:30:19.937Z,100.00
2022-10-23T01:32:57.366Z,100.00
2022-10-23T01:35:52.121Z,100.00
2022-10-23T01:38:31.281Z,100.00
2022-10-23T01:41:11.414Z,100.00
2022-10-23T01:43:56.645Z,100.00
2022-10-23T01:46:25.263Z,100.00
2022-10-23T01:48:57.858Z,100.00
2022-10-23T01:51:27.509Z,100.00
2022-10-23T01:53:58.401Z,100.00
2022-10-23T01:56:35.748Z,100.00
2022-10-23T01:59:08.750Z,100.00
2022-10-23T02:01:39.652Z,100.00
2022-10-23T02:04:10.543Z,100.00
2022-10-23T02:06:37.273Z,100.00
2022-10-23T02:09:06.449Z,100.00
2022-10-23T02:11:39.834Z,100.00
2022-10-23T02:14:17.752Z,100.00
2022-10-23T02:16:52.118Z,100.00
2022-10-23T02:19:50.589Z,100.00
2022-10-23T02:22:23.242Z,100.00
2022-10-23T02:25:12.851Z,100.00
2022-10-23T02:27:47.362Z,100.00
2022-10-23T02:30:16.933Z,100.00
2022-10-23T02:32:50.586Z,100.00
2022-10-23T02:35:19.217Z,100.00
2022-10-23T02:37:56.219Z,100.00
2022-10-23T02:40:26.673Z,100.00
2022-10-23T02:43:17.597Z,100.00
2022-10-23T02:46:00.339Z,100.00
2022-10-23T02:48:39.230Z,100.00
2022-10-23T02:51:15.034Z,100.00
2022-10-23T02:54:01.340Z,100.00
2022-10-23T02:56:36.696Z,100.00
2022-10-23T02:59:16.323Z,100.00
2022-10-23T03:01:53.523Z,100.00
2022-10-23T03:04:24.045Z,100.00
2022-10-23T03:06:51.872Z,100.00
2022-10-23T03:09:18.897Z,100.00
2022-10-23T03:11:45.784Z,100.00
2022-10-23T03:14:13.953Z,100.00
2022-10-23T03:16:40.762Z,100.00
2022-10-23T03:19:07.594Z,100.00
2022-10-23T03:21:34.357Z,100.00
2022-10-23T03:24:01.081Z,100.00
2022-10-23T03:26:27.862Z,100.00
2022-10-23T03:28:54.609Z,100.00
2022-10-23T03:31:21.413Z,100.00
2022-10-23T03:33:48.072Z,100.00
2022-10-23T03:36:14.788Z,100.00
2022-10-23T03:38:41.447Z,100.00
2022-10-23T03:41:08.199Z,100.00
2022-10-23T03:43:35.003Z,100.00
2022-10-23T03:46:02.307Z,100.00
2022-10-23T03:48:29.055Z,100.00
2022-10-23T03:50:55.816Z,100.00
2022-10-23T03:53:22.481Z,100.00
2022-10-23T03:55:49.237Z,100.00
2022-10-23T03:58:16.007Z,100.00
2022-10-23T04:03:14.409Z,100.00
2022-10-23T04:05:42.498Z,100.00
2022-10-23T04:08:09.995Z,100.00
2022-10-23T04:10:36.799Z,100.00
2022-10-23T04:13:03.523Z,100.00
2022-10-23T04:15:30.190Z,100.00
2022-10-23T04:17:56.905Z,100.00
2022-10-23T04:20:23.607Z,100.00
2022-10-23T04:22:50.337Z,100.00
2022-10-23T04:25:17.206Z,100.00
2022-10-23T04:27:44.105Z,100.00
2022-10-23T04:30:11.701Z,100.00
2022-10-23T04:32:38.423Z,100.00
2022-10-23T04:35:05.841Z,100.00
2022-10-23T04:37:32.545Z,100.00
2022-10-23T04:39:59.320Z,100.00
2022-10-23T04:44:52.729Z,100.00
2022-10-23T04:47:19.484Z,100.00
2022-10-23T04:49:46.125Z,100.00
2022-10-23T04:52:12.857Z,100.00
2022-10-23T04:54:40.192Z,100.00
2022-10-23T04:57:07.057Z,100.00
2022-10-23T04:59:33.973Z,100.00
2022-10-23T05:02:01.000Z,100.00
2022-10-23T05:04:27.740Z,100.00
2022-10-23T05:06:54.416Z,100.00
2022-10-23T05:09:22.374Z,100.00
2022-10-23T05:11:49.883Z,100.00
2022-10-23T05:14:20.620Z,100.00
2022-10-23T05:16:59.295Z,100.00
2022-10-23T05:19:29.969Z,100.00
2022-10-23T05:21:57.854Z,100.00
2022-10-23T05:24:25.851Z,100.00
2022-10-23T05:26:53.161Z,100.00
2022-10-23T05:29:20.577Z,100.00
2022-10-23T05:31:50.040Z,100.00
2022-10-23T05:34:21.009Z,100.00
2022-10-23T05:36:48.475Z,100.00
2022-10-23T05:39:16.127Z,100.00
2022-10-23T05:41:42.920Z,100.00
2022-10-23T05:44:09.781Z,100.00
2022-10-23T05:46:41.927Z,100.00
2022-10-23T05:49:08.863Z,100.00
2022-10-23T05:51:40.431Z,100.00
2022-10-23T05:54:08.415Z,100.00
2022-10-23T05:56:37.236Z,100.00
2022-10-23T05:59:04.620Z,100.00
2022-10-23T06:01:31.651Z,100.00
2022-10-23T06:04:00.055Z,100.00
2022-10-23T06:06:27.134Z,100.00
2022-10-23T06:08:54.947Z,100.00
2022-10-23T06:11:22.717Z,100.00
2022-10-23T06:13:49.580Z,100.00
2022-10-23T06:16:21.784Z,100.00
2022-10-23T06:18:48.679Z,100.00
2022-10-23T06:21:16.250Z,100.00
2022-10-23T06:23:44.806Z,100.00
2022-10-23T06:26:13.484Z,100.00
2022-10-23T06:28:40.519Z,100.00
2022-10-23T06:31:10.261Z,100.00
2022-10-23T06:33:37.336Z,100.00
2022-10-23T06:36:05.604Z,100.00
2022-10-23T06:38:37.543Z,100.00
2022-10-23T06:41:06.157Z,100.00
2022-10-23T06:43:32.864Z,98.14
2022-10-23T06:46:05.868Z,94.79
2022-10-23T06:48:33.082Z,92.00
2022-10-23T06:51:05.900Z,94.43
2022-10-23T06:53:33.152Z,100.00
2022-10-23T06:56:01.709Z,100.00
2022-10-23T06:58:29.100Z,100.00
2022-10-23T07:00:56.069Z,96.73
2022-10-23T07:03:22.835Z,96.74
2022-10-23T07:05:49.602Z,87.19
2022-10-23T07:08:16.670Z,82.35
2022-10-23T07:10:43.491Z,81.64
2022-10-23T07:13:11.519Z,84.86
2022-10-23T07:15:39.440Z,83.67
2022-10-23T07:18:06.709Z,76.45
2022-10-23T07:20:33.947Z,76.99
2022-10-23T07:23:00.681Z,76.44
2022-10-23T07:25:27.650Z,77.69
2022-10-23T07:27:57.660Z,73.11
2022-10-23T07:30:24.577Z,73.77
2022-10-23T07:32:51.492Z,73.31
2022-10-23T07:35:18.496Z,70.47
2022-10-23T07:37:45.695Z,69.64
2022-10-23T07:40:12.682Z,65.48
2022-10-23T07:42:39.455Z,65.33
2022-10-23T07:45:07.586Z,65.79
2022-10-23T07:47:34.536Z,64.99
2022-10-23T07:50:01.386Z,63.78
2022-10-23T07:52:31.991Z,64.77
2022-10-23T07:55:02.280Z,66.43
2022-10-23T07:57:29.031Z,66.86
2022-10-23T07:59:55.761Z,65.07
2022-10-23T08:02:22.620Z,62.99
2022-10-23T08:04:50.409Z,61.80
2022-10-23T08:07:17.230Z,59.73
2022-10-23T08:09:43.992Z,58.36
2022-10-23T08:12:10.880Z,57.29
2022-10-23T08:14:37.700Z,58.24
2022-10-23T08:17:05.557Z,58.95
2022-10-23T08:19:32.426Z,56.93
2022-10-23T08:21:59.382Z,56.38
2022-10-23T08:24:27.409Z,55.83
2022-10-23T08:26:54.111Z,56.50
2022-10-23T08:29:20.896Z,55.21
2022-10-23T08:31:47.876Z,55.03
2022-10-23T08:34:15.640Z,54.73
2022-10-23T08:36:42.369Z,53.23
2022-10-23T08:39:09.861Z,52.41
2022-10-23T08:41:47.984Z,52.41
2022-10-23T08:44:47.288Z,54.13
2022-10-23T08:47:21.320Z,54.58
2022-10-23T08:49:56.290Z,53.70
2022-10-23T08:52:35.397Z,53.84
2022-10-23T08:55:21.830Z,52.80
2022-10-23T08:57:58.823Z,51.62
2022-10-23T09:00:25.566Z,50.97
2022-10-23T09:02:54.610Z,50.08
2022-10-23T09:05:35.241Z,48.77
2022-10-23T09:08:12.785Z,48.71
2022-10-23T09:10:58.662Z,48.39
2022-10-23T09:13:58.870Z,49.00
2022-10-23T09:16:38.136Z,47.61
2022-10-23T09:19:19.441Z,47.51
2022-10-23T09:21:49.899Z,48.05
2022-10-23T09:24:19.623Z,47.78
2022-10-23T09:26:50.426Z,47.07
2022-10-23T09:29:28.200Z,46.84
2022-10-23T09:32:00.234Z,46.17
2022-10-23T09:34:30.090Z,46.34
2022-10-23T09:37:00.497Z,46.06
2022-10-23T09:39:30.935Z,46.42
2022-10-23T09:41:58.826Z,46.03
2022-10-23T09:44:30.696Z,46.21
2022-10-23T09:47:06.419Z,46.10
2022-10-23T09:49:34.571Z,46.88
2022-10-23T09:52:04.104Z,46.69
2022-10-23T09:54:33.918Z,45.37
2022-10-23T09:57:16.878Z,45.09
2022-10-23T09:59:44.174Z,45.30
2022-10-23T10:02:41.723Z,44.37
2022-10-23T10:05:27.093Z,45.53
2022-10-23T10:07:59.982Z,46.31
2022-10-23T10:10:34.880Z,45.88
2022-10-23T10:13:15.201Z,45.54
2022-10-23T10:15:52.744Z,44.95
2022-10-23T10:18:37.054Z,44.17
2022-10-23T10:21:06.743Z,44.78
2022-10-23T10:24:02.467Z,45.12
2022-10-23T10:26:35.157Z,44.92
2022-10-23T10:29:38.523Z,44.50
2022-10-23T10:32:34.683Z,44.23
2022-10-23T10:35:30.708Z,44.03
2022-10-23T10:38:29.062Z,43.70
2022-10-23T10:41:26.778Z,44.59
2022-10-23T10:44:11.868Z,45.54
2022-10-23T10:47:15.929Z,45.10
2022-10-23T10:49:52.240Z,45.46
2022-10-23T10:52:21.624Z,45.63
2022-10-23T10:54:59.846Z,45.53
2022-10-23T10:57:38.377Z,45.18
2022-10-23T11:00:14.725Z,44.89
2022-10-23T11:02:53.620Z,45.52
2022-10-23T11:05:37.350Z,46.31
2022-10-23T11:08:09.929Z,45.70
2022-10-23T11:10:41.208Z,44.91
2022-10-23T11:13:25.034Z,45.62
2022-10-23T11:15:55.321Z,46.61
2022-10-23T11:18:31.137Z,45.77
2022-10-23T11:21:26.059Z,45.15
2022-10-23T11:24:05.947Z,46.11
2022-10-23T11:26:58.470Z,45.18
2022-10-23T11:29:43.906Z,45.30
2022-10-23T11:35:06.515Z,43.43
2022-10-23T11:37:33.834Z,44.54
2022-10-23T11:40:06.558Z,46.02
2022-10-23T11:42:40.987Z,45.25
2022-10-23T11:45:27.798Z,44.31
2022-10-23T11:47:59.993Z,44.49
2022-10-23T11:50:30.286Z,44.42
2022-10-23T11:53:14.797Z,44.16
2022-10-23T11:56:23.359Z,45.02
2022-10-23T11:58:55.832Z,45.17
2022-10-23T12:01:41.578Z,45.80
2022-10-23T12:04:16.825Z,45.55
2022-10-23T12:07:14.905Z,45.05
2022-10-23T12:09:44.221Z,44.26
2022-10-23T12:12:10.827Z,43.37
2022-10-23T12:14:41.712Z,43.04
2022-10-23T12:17:23.418Z,44.00
2022-10-23T12:19:55.482Z,44.74
2022-10-23T12:22:27.883Z,44.23
2022-10-23T12:25:27.662Z,44.62
2022-10-23T12:28:04.598Z,43.77
2022-10-23T12:31:00.039Z,43.36
2022-10-23T12:33:40.470Z,42.65
2022-10-23T12:36:19.239Z,44.49
2022-10-23T12:38:47.801Z,44.24
2022-10-23T12:41:22.893Z,42.66
2022-10-23T12:44:02.598Z,43.78
2022-10-23T12:46:33.180Z,44.56
2022-10-23T12:49:02.425Z,44.18
2022-10-23T12:51:35.168Z,44.36
2022-10-23T12:54:03.380Z,44.72
2022-10-23T12:56:37.402Z,44.80
2022-10-23T12:59:05.493Z,44.56
2022-10-23T13:01:34.636Z,44.60
2022-10-23T13:04:35.414Z,45.19
2022-10-23T13:07:03.653Z,44.85
2022-10-23T13:09:36.402Z,45.41
2022-10-23T13:12:06.113Z,45.96
2022-10-23T13:14:42.142Z,47.06
2022-10-23T13:17:12.643Z,47.69
2022-10-23T13:19:39.416Z,47.73
2022-10-23T13:22:20.250Z,49.22
2022-10-23T13:24:47.634Z,49.66
2022-10-23T13:27:35.102Z,49.74
2022-10-23T13:30:05.032Z,49.41
2022-10-23T13:32:36.434Z,49.56
2022-10-23T13:35:20.405Z,49.44
2022-10-23T13:37:49.069Z,50.05
2022-10-23T13:40:30.826Z,50.32
2022-10-23T13:42:57.674Z,50.47
2022-10-23T13:45:26.820Z,50.72
2022-10-23T13:47:54.874Z,51.10
2022-10-23T13:50:21.693Z,50.93
2022-10-23T13:52:49.163Z,51.22
2022-10-23T13:55:26.584Z,51.27
2022-10-23T13:57:53.623Z,51.29
2022-10-23T14:00:20.443Z,52.24
2022-10-23T14:02:47.256Z,52.76
2022-10-23T14:05:14.012Z,52.64
2022-10-23T14:07:42.130Z,52.87
2022-10-23T14:10:09.659Z,53.24
2022-10-23T14:12:44.235Z,53.73
2022-10-23T14:15:11.861Z,53.86
2022-10-23T14:17:39.336Z,53.55
2022-10-23T14:20:07.322Z,53.56
2022-10-23T14:22:34.200Z,53.43
2022-10-23T14:25:01.346Z,54.10
2022-10-23T14:27:30.093Z,54.38
2022-10-23T14:29:57.116Z,54.27
2022-10-23T14:32:23.850Z,53.70
2022-10-23T14:34:53.697Z,54.48
2022-10-23T14:37:21.652Z,55.05
2022-10-23T14:39:50.325Z,55.44
2022-10-23T14:42:19.347Z,56.26
2022-10-23T14:44:46.233Z,56.57
2022-10-23T14:47:12.930Z,57.08
2022-10-23T14:49:40.539Z,56.62
2022-10-23T14:52:07.901Z,57.58
2022-10-23T14:54:37.170Z,57.91
2022-10-23T14:57:04.409Z,58.56
2022-10-23T14:59:31.460Z,58.79
2022-10-23T15:01:58.181Z,59.79
2022-10-23T15:04:25.322Z,60.22
2022-10-23T15:06:52.595Z,60.73
2022-10-23T15:09:20.353Z,61.42
2022-10-23T15:11:48.160Z,62.15
2022-10-23T15:14:15.038Z,63.01
2022-10-23T15:16:42.290Z,63.48
2022-10-23T15:19:17.385Z,64.25
2022-10-23T15:21:47.215Z,64.59
2022-10-23T15:24:15.305Z,65.81
2022-10-23T15:26:43.868Z,67.10
2022-10-23T15:29:11.904Z,67.84
2022-10-23T15:31:38.713Z,68.83
2022-10-23T15:34:06.466Z,70.23
2022-10-23T15:36:34.263Z,71.24
2022-10-23T15:39:01.061Z,72.88
2022-10-23T15:41:30.539Z,73.89
2022-10-23T15:43:59.395Z,75.21
2022-10-23T15:46:26.749Z,75.32
2022-10-23T15:48:53.769Z,75.34
2022-10-23T15:51:20.694Z,76.28
2022-10-23T15:53:47.895Z,75.86
2022-10-23T15:56:17.743Z,76.40
2022-10-23T15:58:44.453Z,76.60
2022-10-23T16:01:11.325Z,76.34
2022-10-23T16:03:39.195Z,75.87
2022-10-23T16:06:12.393Z,75.71
2022-10-23T16:08:39.616Z,74.65
2022-10-23T16:11:15.316Z,74.45
2022-10-23T16:13:43.879Z,74.14
2022-10-23T16:16:10.693Z,74.21
2022-10-23T16:18:37.989Z,73.91
2022-10-23T16:21:05.139Z,74.00
2022-10-23T16:23:33.330Z,73.69
2022-10-23T16:26:06.505Z,73.25
2022-10-23T16:28:33.234Z,74.97
2022-10-23T16:31:00.898Z,74.89
2022-10-23T16:33:27.771Z,75.62
2022-10-23T16:35:54.485Z,75.91
2022-10-23T16:38:21.276Z,75.70
2022-10-23T16:40:54.247Z,76.30
2022-10-23T16:43:21.047Z,75.80
2022-10-23T16:45:47.851Z,75.70
2022-10-23T16:48:14.590Z,76.82
2022-10-23T16:50:41.739Z,76.08
2022-10-23T16:53:08.545Z,75.87
2022-10-23T16:55:35.314Z,74.77
2022-10-23T16:58:02.087Z,73.87
2022-10-23T17:00:34.923Z,74.37
2022-10-23T17:03:03.530Z,74.28
2022-10-23T17:05:34.851Z,75.04
2022-10-23T17:08:01.960Z,75.84
2022-10-23T17:10:28.673Z,79.33
2022-10-23T17:12:55.512Z,80.95
2022-10-23T17:15:23.953Z,81.56
2022-10-23T17:17:50.895Z,83.13
2022-10-23T17:20:17.989Z,85.05
2022-10-23T17:22:44.721Z,84.82
2022-10-23T17:25:11.759Z,84.20
2022-10-23T17:27:38.822Z,82.17
2022-10-23T17:30:10.430Z,80.78
2022-10-23T17:32:39.204Z,80.57
2022-10-23T17:35:06.901Z,81.32
2022-10-23T17:37:33.586Z,81.87
2022-10-23T17:40:02.703Z,82.06
2022-10-23T17:42:29.677Z,82.37
2022-10-23T17:44:56.482Z,82.32
2022-10-23T17:47:23.265Z,80.80
2022-10-23T17:49:50.105Z,81.42
2022-10-23T17:52:16.951Z,81.28
2022-10-23T17:54:43.809Z,82.13
2022-10-23T17:57:10.657Z,82.21
2022-10-23T17:59:39.289Z,81.37
2022-10-23T18:02:07.203Z,80.25
2022-10-23T18:04:34.778Z,80.04
2022-10-23T18:07:01.481Z,78.04
2022-10-23T18:09:28.276Z,77.38
2022-10-23T18:11:55.098Z,76.76
2022-10-23T18:14:23.553Z,76.08
2022-10-23T18:16:52.631Z,76.00
2022-10-23T18:19:19.750Z,76.24
2022-10-23T18:21:47.811Z,75.73
2022-10-23T18:24:14.981Z,76.83
2022-10-23T18:26:42.508Z,76.70
2022-10-23T18:29:11.370Z,76.72
2022-10-23T18:31:38.982Z,78.33
2022-10-23T18:34:23.213Z,78.63
2022-10-23T18:36:51.554Z,79.29
2022-10-23T18:39:22.464Z,79.79
2022-10-23T18:41:52.509Z,79.50
2022-10-23T18:44:21.804Z,80.78
2022-10-23T18:46:49.296Z,79.86
2022-10-23T18:49:18.079Z,80.29
2022-10-23T18:51:44.925Z,80.26
2022-10-23T18:54:14.367Z,84.56
2022-10-23T18:56:41.601Z,85.12
2022-10-23T18:59:12.483Z,88.39
2022-10-23T19:01:39.281Z,90.14
2022-10-23T19:04:06.903Z,96.74
2022-10-23T19:06:36.136Z,100.00
2022-10-23T19:09:06.794Z,100.00
2022-10-23T19:11:33.559Z,100.00
2022-10-23T19:14:00.247Z,100.00
2022-10-23T19:16:26.909Z,100.00
2022-10-23T19:19:07.311Z,100.00
2022-10-23T19:21:38.417Z,100.00
2022-10-23T19:24:09.096Z,100.00
2022-10-23T19:26:37.960Z,100.00
2022-10-23T19:29:07.137Z,100.00
2022-10-23T19:31:34.106Z,100.00
2022-10-23T19:34:00.818Z,100.00
2022-10-23T19:36:27.513Z,100.00
2022-10-23T19:38:54.281Z,100.00
2022-10-23T19:41:20.943Z,100.00
2022-10-23T19:43:47.593Z,100.00
2022-10-23T19:46:14.331Z,100.00
2022-10-23T19:48:45.046Z,100.00
2022-10-23T19:51:13.556Z,100.00
2022-10-23T19:53:42.048Z,100.00
2022-10-23T19:56:11.206Z,100.00
2022-10-23T19:58:38.993Z,100.00
2022-10-23T20:01:17.627Z,100.00
2022-10-23T20:03:50.770Z,100.00
2022-10-23T20:06:20.773Z,100.00
2022-10-23T20:08:48.180Z,100.00
2022-10-23T20:11:20.305Z,100.00
2022-10-23T20:13:48.353Z,100.00
2022-10-23T20:16:21.665Z,100.00
2022-10-23T20:18:48.660Z,100.00
2022-10-23T20:21:15.867Z,100.00
2022-10-23T20:23:42.874Z,100.00
2022-10-23T20:26:12.641Z,100.00
2022-10-23T20:28:39.640Z,100.00
2022-10-23T20:31:09.157Z,100.00
2022-10-23T20:33:37.408Z,100.00
2022-10-23T20:36:07.279Z,100.00
2022-10-23T20:38:35.632Z,100.00
2022-10-23T20:41:07.107Z,100.00
2022-10-23T20:43:34.314Z,100.00
2022-10-23T20:46:09.466Z,100.00
2022-10-23T20:48:37.274Z,100.00
2022-10-23T20:51:06.332Z,100.00
2022-10-23T20:53:34.672Z,100.00
2022-10-23T20:56:08.679Z,100.00
2022-10-23T20:58:35.698Z,100.00
2022-10-23T21:01:04.916Z,100.00
2022-10-23T21:03:31.870Z,100.00
2022-10-23T21:06:10.586Z,100.00
2022-10-23T21:08:38.666Z,100.00
2022-10-23T21:11:05.503Z,100.00
2022-10-23T21:13:32.489Z,100.00
2022-10-23T21:15:59.296Z,100.00
2022-10-23T21:18:44.998Z,100.00
2022-10-23T21:21:13.324Z,100.00
2022-10-23T21:23:40.308Z,100.00
2022-10-23T21:26:07.835Z,100.00
2022-10-23T21:28:35.273Z,100.00
2022-10-23T21:31:12.998Z,100.00
2022-10-23T21:33:41.225Z,100.00
2022-10-23T21:36:13.862Z,100.00
2022-10-23T21:38:40.772Z,100.00
2022-10-23T21:41:09.593Z,100.00
2022-10-23T21:43:36.363Z,100.00
2022-10-23T21:46:23.061Z,100.00
2022-10-23T21:48:50.421Z,100.00
2022-10-23T21:51:29.351Z,100.00
2022-10-23T21:53:57.169Z,100.00
2022-10-23T21:56:34.318Z,100.00
2022-10-23T21:59:02.408Z,100.00
2022-10-23T22:01:30.083Z,100.00
2022-10-23T22:03:57.039Z,100.00
2022-10-23T22:06:26.500Z,100.00
2022-10-23T22:08:55.010Z,100.00
2022-10-23T22:11:21.940Z,100.00
2022-10-23T22:13:49.163Z,100.00
2022-10-23T22:16:16.714Z,100.00
2022-10-23T22:18:44.191Z,100.00
2022-10-23T22:21:14.221Z,100.00
2022-10-23T22:23:41.063Z,100.00
2022-10-23T22:26:19.812Z,100.00
2022-10-23T22:28:46.709Z,100.00
2022-10-23T22:31:18.682Z,100.00
2022-10-23T22:33:45.671Z,100.00
2022-10-23T22:36:12.757Z,100.00
2022-10-23T22:38:41.204Z,100.00
2022-10-23T22:41:08.995Z,100.00
2022-10-23T22:43:35.922Z,100.00
2022-10-23T22:46:11.643Z,100.00
2022-10-23T22:48:39.194Z,100.00
2022-10-23T22:51:08.999Z,100.00
2022-10-23T22:53:36.103Z,100.00
2022-10-23T22:56:07.479Z,100.00
2022-10-23T22:58:35.105Z,100.00
2022-10-23T23:01:13.654Z,100.00
2022-10-23T23:03:40.809Z,100.00
2022-10-23T23:06:08.436Z,100.00
2022-10-23T23:08:36.764Z,100.00
2022-10-23T23:11:04.780Z,100.00
2022-10-23T23:13:31.724Z,100.00
2022-10-23T23:15:58.969Z,100.00
2022-10-23T23:18:25.816Z,100.00
2022-10-23T23:20:52.496Z,100.00
2022-10-23T23:23:19.596Z,100.00
2022-10-23T23:25:49.365Z,100.00
2022-10-23T23:28:18.827Z,100.00
2022-10-23T23:33:13.844Z,100.00
2022-10-23T23:35:44.670Z,100.00
2022-10-23T23:38:12.266Z,100.00
2022-10-23T23:40:39.357Z,100.00
2022-10-23T23:43:06.871Z,100.00
2022-10-23T23:45:33.733Z,100.00
2022-10-23T23:48:00.520Z,100.00
2022-10-23T23:50:28.194Z,100.00
2022-10-23T23:52:55.064Z,100.00
2022-10-23T23:55:21.940Z,100.00
2022-10-23T23:57:48.864Z,100.00
